Time;durP1;ratioP1;P1;durP2;ratioP2;P2;SDS_P1;SDS_P2;PMS_P1;PMS_P2;Temp;Humidity;BMP_temperature;BMP_pressure;BME280_temperature;BME280_humidity;BME280_pressure;Samples;Min_cycle;Max_cycle;Signal;HPM_P1;HPM_P2
2023/10/15 00:00:42;;;;;;;0.55;0.45;;;17.20;99.90;;;;;;5026819;28;20493;-64
2023/10/15 00:03:08;;;;;;;1.02;0.65;;;17.20;99.90;;;;;;5034959;28;20040;-64
2023/10/15 00:05:35;;;;;;;1.75;0.85;;;17.20;99.90;;;;;;5031979;28;20459;-64
2023/10/15 00:08:01;;;;;;;1.08;0.70;;;17.20;99.90;;;;;;5013805;28;20391;-64
2023/10/15 00:10:28;;;;;;;0.82;0.50;;;17.20;99.90;;;;;;5029296;28;20620;-76
2023/10/15 00:12:55;;;;;;;0.30;0.30;;;17.00;99.90;;;;;;5032099;28;20057;-75
2023/10/15 00:15:27;;;;;;;0.68;0.60;;;17.00;99.90;;;;;;5029496;28;20025;-75
2023/10/15 00:17:54;;;;;;;;;;;17.00;99.90;;;;;;5026039;28;20136;-73
2023/10/15 00:20:21;;;;;;;1.17;0.60;;;17.00;99.90;;;;;;5016608;28;19916;-75
2023/10/15 00:22:48;;;;;;;0.28;0.28;;;17.00;99.90;;;;;;5026893;28;20080;-76
2023/10/15 00:25:14;;;;;;;0.65;0.47;;;17.00;99.90;;;;;;5028110;28;20287;-77
2023/10/15 00:27:54;;;;;;;0.10;0.10;;;16.90;99.90;;;;;;5026102;28;20120;-77
2023/10/15 00:30:21;;;;;;;0.40;0.22;;;16.90;99.90;;;;;;5026802;28;20979;-65
2023/10/15 00:32:52;;;;;;;0.73;0.32;;;16.90;99.90;;;;;;5005344;28;21508;-64
2023/10/15 00:35:21;;;;;;;2.03;0.40;;;16.90;99.90;;;;;;5022282;28;20041;-65
2023/10/15 00:37:56;;;;;;;1.92;0.40;;;16.90;99.90;;;;;;5017812;28;20052;-64
2023/10/15 00:40:24;;;;;;;1.38;0.65;;;16.90;99.90;;;;;;5025234;28;20083;-65
2023/10/15 00:42:50;;;;;;;0.80;0.50;;;16.90;99.90;;;;;;5020376;28;20068;-65
2023/10/15 00:45:18;;;;;;;1.27;0.57;;;16.90;99.90;;;;;;5026310;28;20798;-65
2023/10/15 00:48:07;;;;;;;0.65;0.50;;;17.00;99.90;;;;;;5026671;28;20764;-64
2023/10/15 00:50:40;;;;;;;2.00;0.20;;;17.00;99.90;;;;;;5022152;28;20390;-64
2023/10/15 00:53:21;;;;;;;0.50;0.30;;;16.90;99.90;;;;;;5022649;28;20041;-63
2023/10/15 00:55:52;;;;;;;0.30;0.30;;;16.80;99.90;;;;;;5017658;28;20045;-64
2023/10/15 00:58:22;;;;;;;1.33;0.30;;;16.90;99.90;;;;;;5024539;28;20126;-64
2023/10/15 01:01:00;;;;;;;3.00;0.40;;;16.90;99.90;;;;;;5019423;28;20466;-64
2023/10/15 01:03:32;;;;;;;0.70;0.38;;;17.00;99.90;;;;;;5020195;28;20702;-64
2023/10/15 01:06:00;;;;;;;0.90;0.30;;;17.00;99.90;;;;;;5016451;28;20539;-64
2023/10/15 01:08:34;;;;;;;0.10;0.10;;;16.90;99.90;;;;;;5023385;28;20032;-64
2023/10/15 01:11:10;;;;;;;0.30;0.30;;;16.80;99.90;;;;;;5023759;28;21014;-64
2023/10/15 01:13:38;;;;;;;0.22;0.17;;;16.80;99.90;;;;;;5015915;28;20045;-64
2023/10/15 01:16:06;;;;;;;0.57;0.20;;;16.70;99.90;;;;;;5004595;28;20041;-64
2023/10/15 01:18:31;;;;;;;0.55;0.20;;;16.60;99.90;;;;;;5024686;28;20088;-64
2023/10/15 01:21:01;;;;;;;0.32;0.17;;;16.60;99.90;;;;;;5001950;28;20029;-64
2023/10/15 01:23:32;;;;;;;1.27;0.50;;;16.50;99.90;;;;;;5021940;28;20501;-73
2023/10/15 01:26:00;;;;;;;0.13;0.10;;;16.40;99.90;;;;;;5018805;28;21065;-64
2023/10/15 01:28:36;;;;;;;0.13;0.10;;;16.30;99.90;;;;;;5019168;28;20135;-64
2023/10/15 01:31:06;;;;;;;0.10;0.10;;;16.30;99.90;;;;;;5020349;28;20087;-64
2023/10/15 01:33:53;;;;;;;0.10;0.10;;;16.30;99.90;;;;;;5023394;28;20123;-64
2023/10/15 01:36:28;;;;;;;0.68;0.15;;;16.30;99.90;;;;;;5017152;28;20162;-64
2023/10/15 01:38:58;;;;;;;1.00;0.10;;;16.30;99.90;;;;;;5015982;28;20076;-64
2023/10/15 01:41:28;;;;;;;1.90;0.20;;;16.40;99.90;;;;;;5028555;28;20098;-65
2023/10/15 01:43:57;;;;;;;0.00;0.00;;;16.40;99.90;;;;;;5025213;28;20055;-65
2023/10/15 01:46:44;;;;;;;0.20;0.20;;;16.30;99.90;;;;;;5025371;28;22349;-64
2023/10/15 01:49:16;;;;;;;0.30;0.20;;;16.30;99.90;;;;;;5028814;28;20025;-64
2023/10/15 01:51:44;;;;;;;0.20;0.20;;;16.30;99.90;;;;;;5023516;28;20044;-64
2023/10/15 01:54:10;;;;;;;0.65;0.22;;;16.30;99.90;;;;;;5028187;28;20041;-64
2023/10/15 01:56:37;;;;;;;3.50;0.38;;;16.30;99.90;;;;;;5022275;28;20398;-64
2023/10/15 01:59:09;;;;;;;0.90;0.20;;;16.30;99.90;;;;;;5007468;28;22351;-64
2023/10/15 02:01:40;;;;;;;;;;;16.40;99.90;;;;;;5023810;28;20048;-75
2023/10/15 02:04:18;;;;;;;0.50;0.30;;;16.40;99.90;;;;;;5028072;28;19912;-76
2023/10/15 02:06:44;;;;;;;0.30;0.20;;;16.30;99.90;;;;;;5023912;28;21467;-77
2023/10/15 02:09:12;;;;;;;0.35;0.30;;;16.20;99.90;;;;;;5005343;28;21219;-77
2023/10/15 02:11:47;;;;;;;0.28;0.20;;;16.20;99.90;;;;;;5022746;28;20049;-76
2023/10/15 02:14:21;;;;;;;0.20;0.20;;;16.20;99.90;;;;;;5028017;28;20048;-76
2023/10/15 02:16:49;;;;;;;0.20;0.20;;;16.20;99.90;;;;;;5022556;28;20029;-75
2023/10/15 02:19:20;;;;;;;0.95;0.25;;;16.30;99.90;;;;;;5029547;28;20555;-64
2023/10/15 02:21:49;;;;;;;0.95;0.20;;;16.20;99.90;;;;;;5027478;28;20044;-65
2023/10/15 02:24:15;;;;;;;2.05;0.20;;;16.20;99.90;;;;;;5025671;28;20072;-64
2023/10/15 02:26:41;;;;;;;0.20;0.20;;;16.20;99.90;;;;;;5019004;28;20128;-64
2023/10/15 02:29:27;;;;;;;0.20;0.20;;;16.20;99.90;;;;;;5016062;28;21173;-64
2023/10/15 02:31:52;;;;;;;0.63;0.40;;;16.10;99.90;;;;;;5020157;28;20168;-64
2023/10/15 02:34:17;;;;;;;0.30;0.15;;;15.90;99.90;;;;;;5027253;28;20045;-65
2023/10/15 02:36:43;;;;;;;1.15;0.50;;;15.70;99.90;;;;;;5023217;28;20064;-64
2023/10/15 02:39:09;;;;;;;0.03;0.03;;;15.70;99.90;;;;;;5025660;28;21245;-71
2023/10/15 02:41:46;;;;;;;0.38;0.22;;;15.60;99.90;;;;;;5023888;28;20029;-72
2023/10/15 02:44:21;;;;;;;0.25;0.20;;;15.50;99.90;;;;;;5008370;28;20054;-72
2023/10/15 02:46:50;;;;;;;0.57;0.40;;;15.50;99.90;;;;;;5002700;28;20205;-71
2023/10/15 02:49:17;;;;;;;0.30;0.10;;;15.50;99.90;;;;;;4996933;28;20045;-72
2023/10/15 02:51:47;;;;;;;0.20;0.20;;;15.60;99.90;;;;;;4994837;28;20038;-71
2023/10/15 02:54:24;;;;;;;0.38;0.20;;;15.60;99.90;;;;;;5000601;28;20036;-71
2023/10/15 02:56:50;;;;;;;1.13;0.30;;;15.60;99.90;;;;;;5006090;28;20044;-65
2023/10/15 02:59:16;;;;;;;0.45;0.28;;;15.50;99.90;;;;;;5009096;28;20049;-65
2023/10/15 03:01:45;;;;;;;0.65;0.38;;;15.40;99.90;;;;;;5003116;28;20144;-65
2023/10/15 03:04:11;;;;;;;1.20;0.25;;;15.50;99.90;;;;;;5011199;28;20088;-65
2023/10/15 03:06:41;;;;;;;0.80;0.38;;;15.50;99.90;;;;;;4995100;28;20095;-65
2023/10/15 03:09:11;;;;;;;0.40;0.20;;;15.60;99.90;;;;;;4997758;28;20029;-65
2023/10/15 03:11:38;;;;;;;4.45;0.47;;;15.50;99.90;;;;;;4999133;28;20038;-65
2023/10/15 03:14:06;;;;;;;0.32;0.20;;;15.60;99.90;;;;;;5008749;28;20034;-72
2023/10/15 03:16:35;;;;;;;0.40;0.25;;;15.60;99.90;;;;;;5005249;28;20048;-72
2023/10/15 03:19:09;;;;;;;0.47;0.30;;;15.70;99.90;;;;;;5008030;28;20042;-72
2023/10/15 03:21:39;;;;;;;1.75;0.25;;;15.60;99.90;;;;;;5005295;28;20092;-72
2023/10/15 03:24:05;;;;;;;2.10;0.63;;;15.60;99.90;;;;;;5004438;28;20064;-72
2023/10/15 03:26:34;;;;;;;0.50;0.40;;;15.60;99.90;;;;;;4997853;28;20040;-72
2023/10/15 03:29:13;;;;;;;0.38;0.20;;;15.50;99.90;;;;;;4997316;28;20163;-72
2023/10/15 03:31:45;;;;;;;0.70;0.40;;;15.40;99.90;;;;;;5006397;28;20059;-72
2023/10/15 03:36:57;;;;;;;1.50;0.52;;;15.50;99.90;;;;;;5005967;28;20920;-66
2023/10/15 03:44:45;;;;;;;1.08;0.40;;;15.50;99.90;;;;;;5015396;28;20956;-66
2023/10/15 03:47:13;;;;;;;1.08;0.50;;;15.40;99.90;;;;;;5021864;28;20037;-65
2023/10/15 03:49:39;;;;;;;0.98;0.60;;;15.40;99.90;;;;;;5030893;28;20095;-66
2023/10/15 03:52:08;;;;;;;1.50;0.45;;;15.30;99.90;;;;;;5031500;28;20025;-67
2023/10/15 03:54:37;;;;;;;2.30;0.60;;;15.30;99.90;;;;;;5031080;28;20036;-66
2023/10/15 03:57:06;;;;;;;2.03;0.70;;;15.40;99.90;;;;;;5030002;28;20041;-65
2023/10/15 03:59:41;;;;;;;1.90;0.85;;;15.30;99.90;;;;;;5026844;28;20048;-66
2023/10/15 04:02:11;;;;;;;0.93;0.50;;;15.30;99.90;;;;;;5028293;28;20082;-66
2023/10/15 04:04:37;;;;;;;1.75;0.70;;;15.30;99.90;;;;;;5023298;28;20055;-66
2023/10/15 04:07:18;;;;;;;1.25;0.70;;;15.30;99.90;;;;;;5024206;28;20133;-66
2023/10/15 04:09:44;;;;;;;0.77;0.52;;;15.20;99.90;;;;;;5025945;28;20077;-73
2023/10/15 04:12:10;;;;;;;2.08;0.80;;;15.20;99.90;;;;;;5030328;28;20626;-72
2023/10/15 04:14:35;;;;;;;2.88;0.63;;;15.20;99.90;;;;;;5030393;28;20033;-72
2023/10/15 04:17:04;;;;;;;1.48;1.02;;;15.10;99.90;;;;;;5027515;28;20055;-73
2023/10/15 04:19:30;;;;;;;1.27;0.55;;;15.10;99.90;;;;;;5031461;28;20149;-73
2023/10/15 04:22:14;;;;;;;1.75;0.65;;;15.10;99.90;;;;;;5024904;28;20156;-72
2023/10/15 04:24:46;;;;;;;2.22;0.93;;;15.10;99.90;;;;;;5009524;28;21246;-73
2023/10/15 04:27:15;;;;;;;;;;;15.10;99.90;;;;;;5029425;28;20095;-72
2023/10/15 04:29:51;;;;;;;0.70;0.65;;;15.20;99.90;;;;;;5032458;28;19912;-72
2023/10/15 04:34:42;;;;;;;6.28;1.23;;;15.10;99.90;;;;;;5026382;28;20071;-72
2023/10/15 04:37:10;;;;;;;1.63;0.80;;;15.10;99.90;;;;;;5024864;28;20058;-72
2023/10/15 04:39:47;;;;;;;2.58;0.60;;;15.00;99.90;;;;;;5029031;28;20037;-72
2023/10/15 04:42:20;;;;;;;3.50;0.60;;;15.00;99.90;;;;;;5031321;28;20072;-72
2023/10/15 04:44:46;;;;;;;1.50;0.98;;;14.90;99.90;;;;;;5030607;28;20158;-72
2023/10/15 04:47:17;;;;;;;2.15;0.80;;;14.90;99.90;;;;;;5024411;28;20037;-65
2023/10/15 04:49:47;;;;;;;1.30;0.90;;;15.00;99.90;;;;;;5027881;28;20044;-66
2023/10/15 04:52:18;;;;;;;1.40;0.80;;;14.90;99.90;;;;;;5028794;28;20032;-65
2023/10/15 04:54:45;;;;;;;2.30;1.10;;;14.80;99.90;;;;;;5029166;28;20060;-65
2023/10/15 04:57:10;;;;;;;1.05;0.70;;;14.80;99.90;;;;;;5028950;28;20399;-66
2023/10/15 04:59:36;;;;;;;1.65;0.98;;;14.90;99.90;;;;;;5023967;28;20919;-65
2023/10/15 05:02:02;;;;;;;2.33;1.17;;;14.90;99.90;;;;;;5023337;28;20036;-65
2023/10/15 05:04:28;;;;;;;1.85;0.80;;;14.90;99.90;;;;;;5028593;28;20029;-72
2023/10/15 05:06:54;;;;;;;1.38;0.85;;;14.90;99.90;;;;;;5015727;28;20033;-74
2023/10/15 05:09:23;;;;;;;1.60;0.70;;;14.90;99.90;;;;;;5022771;28;20048;-74
2023/10/15 05:11:53;;;;;;;1.27;0.70;;;14.90;99.90;;;;;;5026765;28;20439;-74
2023/10/15 05:14:19;;;;;;;2.35;0.75;;;14.80;99.90;;;;;;5024653;28;20049;-73
2023/10/15 05:16:48;;;;;;;2.40;0.80;;;14.70;99.90;;;;;;5028391;28;20032;-72
2023/10/15 05:19:17;;;;;;;2.83;0.65;;;14.60;99.90;;;;;;5029896;28;20052;-74
2023/10/15 05:21:49;;;;;;;1.45;0.80;;;14.50;99.90;;;;;;5024034;28;20038;-65
2023/10/15 05:24:21;;;;;;;2.78;0.80;;;14.50;99.90;;;;;;5025379;28;20043;-65
2023/10/15 05:26:50;;;;;;;1.80;1.00;;;14.50;99.90;;;;;;5019575;28;20045;-65
2023/10/15 05:29:15;;;;;;;1.50;0.60;;;14.40;99.90;;;;;;5024341;28;20064;-65
2023/10/15 05:31:42;;;;;;;1.48;0.80;;;14.40;99.90;;;;;;5026936;28;20035;-65
2023/10/15 05:34:08;;;;;;;4.13;0.88;;;14.40;99.90;;;;;;5029379;28;20033;-64
2023/10/15 05:36:37;;;;;;;2.35;1.17;;;14.30;99.90;;;;;;5026282;28;20045;-64
2023/10/15 05:39:04;;;;;;;1.50;0.80;;;14.20;99.90;;;;;;5027572;28;20145;-65
2023/10/15 05:41:34;;;;;;;3.95;1.25;;;14.10;99.90;;;;;;5022254;28;20491;-73
2023/10/15 05:44:00;;;;;;;2.58;1.00;;;14.20;99.90;;;;;;5025534;28;20049;-73
2023/10/15 05:46:27;;;;;;;4.65;0.60;;;14.30;99.90;;;;;;5023632;28;20091;-73
2023/10/15 05:48:53;;;;;;;1.55;0.80;;;14.30;99.90;;;;;;5027514;28;20454;-73
2023/10/15 05:51:20;;;;;;;3.78;2.17;;;14.30;99.90;;;;;;5019201;28;20077;-74
2023/10/15 05:53:46;;;;;;;1.55;0.80;;;14.30;99.90;;;;;;5023332;28;20040;-73
2023/10/15 05:56:12;;;;;;;1.70;0.80;;;14.30;99.90;;;;;;5026374;28;20037;-73
2023/10/15 05:58:37;;;;;;;2.78;0.80;;;14.20;99.90;;;;;;5025995;28;20045;-73
2023/10/15 06:01:03;;;;;;;2.33;0.77;;;14.20;99.90;;;;;;5022401;28;20048;-66
2023/10/15 06:03:30;;;;;;;2.90;1.30;;;14.10;99.90;;;;;;5026040;28;20095;-65
2023/10/15 06:05:58;;;;;;;0.98;0.52;;;14.10;99.90;;;;;;5026028;28;20033;-66
2023/10/15 06:08:24;;;;;;;2.53;0.80;;;14.10;99.90;;;;;;5015333;28;20137;-65
2023/10/15 06:10:51;;;;;;;2.10;0.75;;;14.10;99.90;;;;;;5001696;28;20137;-65
2023/10/15 06:13:17;;;;;;;1.15;0.60;;;14.10;99.90;;;;;;5026922;28;20067;-65
2023/10/15 06:15:42;;;;;;;3.25;0.77;;;14.10;99.90;;;;;;5023340;28;20045;-65
2023/10/15 06:18:09;;;;;;;1.38;0.70;;;14.20;99.90;;;;;;5027844;28;20425;-73
2023/10/15 06:20:35;;;;;;;2.08;0.90;;;14.30;99.90;;;;;;5024560;28;20191;-73
2023/10/15 06:23:04;;;;;;;1.63;0.63;;;14.30;99.90;;;;;;5008849;28;20033;-73
2023/10/15 06:25:30;;;;;;;2.40;0.70;;;14.30;99.90;;;;;;5026308;28;20116;-74
2023/10/15 06:27:55;;;;;;;2.45;0.80;;;14.30;99.90;;;;;;5016532;28;20108;-74
2023/10/15 06:30:21;;;;;;;3.20;0.80;;;14.30;99.90;;;;;;5019257;28;20031;-74
2023/10/15 06:32:48;;;;;;;1.98;0.70;;;14.40;99.90;;;;;;5022315;28;20037;-75
2023/10/15 06:35:19;;;;;;;2.05;1.08;;;14.30;99.90;;;;;;5024901;28;20059;-76
2023/10/15 06:37:49;;;;;;;2.90;0.80;;;14.20;99.90;;;;;;5019215;28;20037;-65
2023/10/15 06:40:16;;;;;;;3.33;0.75;;;14.10;99.90;;;;;;5024191;28;20120;-66
2023/10/15 06:42:43;;;;;;;2.97;1.15;;;14.10;99.90;;;;;;5023195;28;20045;-62
2023/10/15 06:45:09;;;;;;;3.17;0.93;;;14.10;99.90;;;;;;5025222;28;20037;-63
2023/10/15 06:47:35;;;;;;;4.13;1.52;;;14.10;99.90;;;;;;5011287;28;20674;-62
2023/10/15 06:50:06;;;;;;;2.92;1.05;;;14.10;99.90;;;;;;5024525;28;20059;-62
2023/10/15 06:52:41;;;;;;;2.17;0.70;;;14.10;99.90;;;;;;4992436;28;20049;-62
2023/10/15 06:55:13;;;;;;;1.75;0.70;;;14.10;99.90;;;;;;5011989;28;20126;-72
2023/10/15 06:57:39;;;;;;;5.85;0.95;;;14.00;99.90;;;;;;5030416;28;20045;-70
2023/10/15 07:00:07;;;;;;;4.78;0.88;;;13.90;99.90;;;;;;5022994;28;20037;-71
2023/10/15 07:02:32;;;;;;;3.78;0.80;;;13.90;99.90;;;;;;5008746;28;20044;-71
2023/10/15 07:05:00;;;;;;;2.83;0.82;;;13.80;99.90;;;;;;5025821;28;20040;-71
2023/10/15 07:07:27;;;;;;;2.80;0.70;;;13.80;99.90;;;;;;5024815;28;20120;-71
2023/10/15 07:09:53;;;;;;;2.83;0.85;;;13.80;99.90;;;;;;5023804;28;20042;-71
2023/10/15 07:12:20;;;;;;;3.70;0.80;;;13.80;99.90;;;;;;5029407;28;20068;-65
2023/10/15 07:14:46;;;;;;;5.65;0.90;;;13.90;99.90;;;;;;5019869;28;20025;-65
2023/10/15 07:17:12;;;;;;;1.33;0.82;;;13.90;99.90;;;;;;5027940;28;20128;-65
2023/10/15 07:19:37;;;;;;;2.63;0.85;;;13.90;99.90;;;;;;5026428;28;20520;-65
2023/10/15 07:22:04;;;;;;;2.60;0.70;;;13.90;99.90;;;;;;5021790;28;20033;-65
2023/10/15 07:24:31;;;;;;;4.22;0.82;;;13.90;99.90;;;;;;5018912;28;20040;-65
2023/10/15 07:26:57;;;;;;;5.63;0.80;;;13.80;99.90;;;;;;5032236;28;20036;-65
2023/10/15 07:29:24;;;;;;;2.83;0.52;;;13.80;99.90;;;;;;5027107;28;20049;-65
2023/10/15 07:31:51;;;;;;;2.08;0.77;;;13.80;99.90;;;;;;5030003;28;20028;-65
2023/10/15 07:34:22;;;;;;;5.05;0.88;;;13.80;99.90;;;;;;5026251;28;20047;-71
2023/10/15 07:36:50;;;;;;;3.00;0.60;;;13.80;99.90;;;;;;5035830;28;20032;-71
2023/10/15 07:39:17;;;;;;;10.65;1.13;;;13.80;99.90;;;;;;5011833;28;20097;-72
2023/10/15 07:41:43;;;;;;;2.13;0.82;;;13.80;99.90;;;;;;5036049;28;20042;-71
2023/10/15 07:44:10;;;;;;;2.17;0.80;;;13.80;99.90;;;;;;5031472;28;20547;-71
2023/10/15 07:46:36;;;;;;;3.90;0.85;;;13.70;99.90;;;;;;5015735;28;20759;-71
2023/10/15 07:49:03;;;;;;;2.65;0.70;;;13.70;99.90;;;;;;5032688;28;20087;-65
2023/10/15 07:51:29;;;;;;;2.47;0.88;;;13.60;99.90;;;;;;5026381;28;20049;-71
2023/10/15 07:53:54;;;;;;;2.90;0.77;;;13.60;99.90;;;;;;5031948;28;20064;-71
2023/10/15 07:56:21;;;;;;;4.93;0.98;;;13.60;99.90;;;;;;5037602;28;20069;-71
2023/10/15 07:58:48;;;;;;;3.05;0.85;;;13.60;99.90;;;;;;5032758;28;20164;-71
2023/10/15 08:01:14;;;;;;;1.98;0.75;;;13.50;99.90;;;;;;5030064;28;21239;-70
2023/10/15 08:03:40;;;;;;;2.58;0.82;;;13.50;99.90;;;;;;5015495;28;20453;-70
2023/10/15 08:06:07;;;;;;;2.50;0.90;;;13.50;99.90;;;;;;5027077;28;20405;-70
2023/10/15 08:08:34;;;;;;;1.65;0.68;;;13.50;99.90;;;;;;5029427;28;20521;-69
2023/10/15 08:11:01;;;;;;;2.22;0.82;;;13.60;99.90;;;;;;5034776;28;20072;-64
2023/10/15 08:13:26;;;;;;;2.92;0.77;;;13.60;99.90;;;;;;5031240;28;20024;-65
2023/10/15 08:15:52;;;;;;;6.07;0.82;;;13.60;99.90;;;;;;5031552;28;20456;-65
2023/10/15 08:18:17;;;;;;;4.80;0.75;;;13.60;99.90;;;;;;5025314;28;20056;-64
2023/10/15 08:20:43;;;;;;;4.95;1.25;;;13.60;99.90;;;;;;5021795;28;20078;-65
2023/10/15 08:23:10;;;;;;;2.60;0.88;;;13.60;99.90;;;;;;5031978;28;20028;-66
2023/10/15 08:25:36;;;;;;;3.08;0.80;;;13.60;99.90;;;;;;5029283;28;20823;-64
2023/10/15 08:28:02;;;;;;;3.50;0.95;;;13.60;99.90;;;;;;5031688;28;20053;-72
2023/10/15 08:30:30;;;;;;;1.33;0.70;;;13.60;99.90;;;;;;5026147;28;20033;-72
2023/10/15 08:32:56;;;;;;;4.95;0.82;;;13.60;99.90;;;;;;5028890;28;20029;-73
2023/10/15 08:35:21;;;;;;;1.95;0.80;;;13.70;99.90;;;;;;5023311;28;20083;-72
2023/10/15 08:37:47;;;;;;;9.02;0.95;;;13.70;99.90;;;;;;5013753;28;20072;-72
2023/10/15 08:40:17;;;;;;;2.30;0.77;;;13.70;99.90;;;;;;5026463;28;20131;-71
2023/10/15 08:42:50;;;;;;;2.58;0.65;;;13.80;99.90;;;;;;5027390;28;20061;-72
2023/10/15 08:45:21;;;;;;;1.08;0.40;;;13.80;99.90;;;;;;5026033;28;20118;-64
2023/10/15 08:47:47;;;;;;;1.88;0.70;;;13.80;99.90;;;;;;5032816;28;20045;-65
2023/10/15 08:50:16;;;;;;;3.55;0.82;;;13.90;99.90;;;;;;5032912;28;20036;-65
2023/10/15 08:52:44;;;;;;;2.88;0.65;;;13.90;99.90;;;;;;5025891;28;22033;-65
2023/10/15 08:55:10;;;;;;;6.78;0.75;;;13.90;99.90;;;;;;5029364;28;20571;-65
2023/10/15 08:57:37;;;;;;;3.85;1.08;;;13.80;99.90;;;;;;5005587;28;20125;-65
2023/10/15 09:00:04;;;;;;;1.63;0.60;;;13.80;99.90;;;;;;5029033;28;20124;-65
2023/10/15 09:02:31;;;;;;;3.78;0.90;;;13.80;99.90;;;;;;5032782;28;20033;-73
2023/10/15 09:04:56;;;;;;;2.20;1.00;;;13.80;99.90;;;;;;5034863;28;20745;-73
2023/10/15 09:07:23;;;;;;;2.90;0.60;;;13.80;99.90;;;;;;5025927;28;20179;-73
2023/10/15 09:09:49;;;;;;;2.50;0.77;;;13.80;99.90;;;;;;5027351;28;20122;-73
2023/10/15 09:12:15;;;;;;;3.13;0.93;;;13.80;99.90;;;;;;5026906;28;20135;-73
2023/10/15 09:14:45;;;;;;;3.35;0.88;;;13.80;99.90;;;;;;5030928;28;20033;-73
2023/10/15 09:17:15;;;;;;;2.83;0.65;;;13.70;99.90;;;;;;5028845;28;20044;-73
2023/10/15 09:19:42;;;;;;;2.28;0.70;;;13.80;99.90;;;;;;5017272;28;20099;-73
2023/10/15 09:22:15;;;;;;;1.80;0.90;;;13.80;99.90;;;;;;5020829;28;20032;-73
2023/10/15 09:24:45;;;;;;;3.60;0.80;;;13.80;99.90;;;;;;5031078;28;20049;-63
2023/10/15 09:27:13;;;;;;;2.88;0.68;;;13.70;99.90;;;;;;5009442;28;20041;-64
2023/10/15 09:29:40;;;;;;;1.63;0.80;;;13.60;99.90;;;;;;5030334;28;20355;-64
2023/10/15 09:32:06;;;;;;;3.15;0.98;;;13.60;99.90;;;;;;5018306;28;20059;-63
2023/10/15 09:34:38;;;;;;;2.80;0.70;;;13.70;99.90;;;;;;5031571;28;20541;-65
2023/10/15 09:37:06;;;;;;;2.97;0.98;;;13.70;99.90;;;;;;5032365;28;20375;-65
2023/10/15 09:39:32;;;;;;;2.47;0.82;;;13.70;99.90;;;;;;5030519;28;20056;-64
2023/10/15 09:42:02;;;;;;;4.13;0.98;;;13.70;99.90;;;;;;5028573;28;20060;-72
2023/10/15 09:44:28;;;;;;;3.22;0.95;;;13.70;99.90;;;;;;5033814;28;20024;-71
2023/10/15 09:46:54;;;;;;;3.63;1.10;;;13.70;99.90;;;;;;5032933;28;20072;-71
2023/10/15 09:49:20;;;;;;;5.70;0.73;;;13.70;99.90;;;;;;5027845;28;20029;-72
2023/10/15 09:51:51;;;;;;;5.10;1.13;;;13.70;99.90;;;;;;5026698;28;20181;-72
2023/10/15 09:54:19;;;;;;;3.03;1.15;;;13.70;99.90;;;;;;5016967;28;20048;-72
2023/10/15 09:56:48;;;;;;;3.22;0.90;;;13.60;99.90;;;;;;5030219;28;20108;-72
2023/10/15 09:59:15;;;;;;;2.40;0.80;;;13.60;99.90;;;;;;5016546;28;20052;-64
2023/10/15 10:01:46;;;;;;;4.18;0.95;;;13.70;99.90;;;;;;5018409;28;20068;-63
2023/10/15 10:04:43;;;;;;;1.95;0.80;;;13.70;99.90;;;;;;5033209;28;20068;-64
2023/10/15 10:07:33;;;;;;;2.13;0.65;;;13.80;99.90;;;;;;5025278;28;20036;-64
2023/10/15 10:10:47;;;;;;;3.28;1.00;;;13.80;99.90;;;;;;5032546;28;20033;-64
2023/10/15 10:13:40;;;;;;;2.63;0.77;;;13.90;99.90;;;;;;4955883;28;20148;-64
2023/10/15 10:16:24;;;;;;;3.65;1.08;;;14.00;99.90;;;;;;5025489;28;20183;-64
2023/10/15 10:18:50;;;;;;;1.65;0.70;;;14.10;99.90;;;;;;5031435;28;20047;-65
2023/10/15 10:21:16;;;;;;;2.90;0.88;;;14.10;99.90;;;;;;5024305;28;20049;-64
2023/10/15 10:23:43;;;;;;;6.97;1.05;;;14.10;99.90;;;;;;5018147;28;20513;-64
2023/10/15 10:26:14;;;;;;;2.88;0.80;;;14.20;99.90;;;;;;5000367;28;20072;-63
2023/10/15 10:28:40;;;;;;;2.45;0.93;;;14.20;99.90;;;;;;5028036;28;20456;-65
2023/10/15 10:31:11;;;;;;;2.45;0.93;;;14.30;99.90;;;;;;4990625;28;20048;-64
2023/10/15 10:33:54;;;;;;;2.45;0.55;;;14.30;99.90;;;;;;5022772;28;20041;-64
2023/10/15 10:36:22;;;;;;;1.77;0.63;;;14.20;99.90;;;;;;5019229;28;20175;-64
2023/10/15 10:39:11;;;;;;;1.95;0.70;;;14.20;99.90;;;;;;5025145;28;20410;-65
2023/10/15 10:41:45;;;;;;;3.40;0.82;;;14.30;99.90;;;;;;5017012;28;20041;-65
2023/10/15 10:44:23;;;;;;;3.22;1.00;;;14.40;99.90;;;;;;4997069;28;20044;-65
2023/10/15 10:46:52;;;;;;;28.30;19.90;;;14.40;99.90;;;;;;5006174;28;20339;-65
2023/10/15 10:49:34;;;;;;;2.65;1.40;;;14.50;99.90;;;;;;4987960;28;20039;-65
2023/10/15 10:52:17;;;;;;;3.97;0.88;;;14.50;99.90;;;;;;5010489;28;20539;-64
2023/10/15 10:54:43;;;;;;;4.50;0.85;;;14.40;99.90;;;;;;5004248;28;20040;-73
2023/10/15 10:57:09;;;;;;;2.08;0.85;;;14.30;99.90;;;;;;5020680;28;20068;-73
2023/10/15 10:59:36;;;;;;;5.68;0.88;;;14.20;99.90;;;;;;5019329;28;20130;-72
2023/10/15 11:02:05;;;;;;;3.58;0.70;;;14.10;99.90;;;;;;5025750;28;20045;-72
2023/10/15 11:04:31;;;;;;;3.17;0.93;;;14.20;99.90;;;;;;5001638;28;20037;-74
2023/10/15 11:06:58;;;;;;;2.88;0.90;;;14.20;99.90;;;;;;5017976;28;20036;-73
2023/10/15 11:09:25;;;;;;;2.15;0.68;;;14.10;99.90;;;;;;5019291;28;21890;-75
2023/10/15 11:11:58;;;;;;;1.73;0.50;;;14.00;99.90;;;;;;5029287;28;20526;-73
2023/10/15 11:14:27;;;;;;;1.85;0.70;;;13.90;99.90;;;;;;5030336;28;20032;-73
2023/10/15 11:16:55;;;;;;;4.20;0.70;;;13.90;99.90;;;;;;5030987;28;20309;-74
2023/10/15 11:19:21;;;;;;;2.22;0.68;;;14.00;99.90;;;;;;5024008;28;20132;-74
2023/10/15 11:21:48;;;;;;;3.13;0.75;;;14.00;99.90;;;;;;5022085;28;20612;-73
2023/10/15 11:24:15;;;;;;;1.63;0.70;;;13.90;99.90;;;;;;5010166;28;20067;-72
2023/10/15 11:26:42;;;;;;;3.50;1.20;;;13.90;99.90;;;;;;5021877;28;20040;-74
2023/10/15 11:29:19;;;;;;;2.35;0.82;;;13.90;99.90;;;;;;5002170;28;20036;-71
2023/10/15 11:31:48;;;;;;;1.25;0.50;;;13.90;99.90;;;;;;5024423;28;20122;-71
2023/10/15 11:34:21;;;;;;;3.83;0.88;;;13.80;99.90;;;;;;5022358;28;20035;-72
2023/10/15 11:36:48;;;;;;;2.88;0.80;;;13.80;99.90;;;;;;5020582;28;20072;-70
2023/10/15 11:39:22;;;;;;;1.80;0.65;;;13.80;99.90;;;;;;5010419;28;20056;-70
2023/10/15 11:41:52;;;;;;;3.05;0.80;;;13.80;99.90;;;;;;5014100;28;20029;-71
2023/10/15 11:44:26;;;;;;;5.30;0.95;;;13.70;99.90;;;;;;5020231;28;20049;-71
2023/10/15 11:47:08;;;;;;;2.22;0.82;;;13.70;99.90;;;;;;5000488;28;20037;-71
2023/10/15 11:49:35;;;;;;;;;;;13.60;99.90;;;;;;5011286;28;20742;-71
2023/10/15 11:52:05;;;;;;;2.55;0.60;;;13.70;99.90;;;;;;5021769;28;19923;-66
2023/10/15 11:54:32;;;;;;;2.28;0.80;;;13.70;99.90;;;;;;5018126;28;20620;-66
2023/10/15 11:57:05;;;;;;;2.20;0.75;;;13.80;99.90;;;;;;5013652;28;20105;-66
2023/10/15 11:59:38;;;;;;;3.42;0.68;;;13.90;99.90;;;;;;5013079;28;20045;-62
2023/10/15 12:02:04;;;;;;;1.52;0.80;;;14.00;99.90;;;;;;4987609;28;20761;-62
2023/10/15 12:04:29;;;;;;;2.75;0.80;;;14.20;99.90;;;;;;5014045;28;20049;-60
2023/10/15 12:06:55;;;;;;;2.75;0.70;;;14.30;99.90;;;;;;5015740;28;20041;-61
2023/10/15 12:09:24;;;;;;;3.28;0.65;;;14.30;99.90;;;;;;4998880;28;20118;-62
2023/10/15 12:11:53;;;;;;;3.25;0.77;;;14.30;99.90;;;;;;5012032;28;20722;-61
2023/10/15 12:14:19;;;;;;;3.47;0.93;;;14.20;99.90;;;;;;5017007;28;20065;-61
2023/10/15 12:16:45;;;;;;;5.25;1.02;;;14.20;99.90;;;;;;5010917;28;20056;-62
2023/10/15 12:19:11;;;;;;;3.38;0.70;;;14.10;99.90;;;;;;5011662;28;20102;-64
2023/10/15 12:21:38;;;;;;;4.20;0.70;;;14.00;99.90;;;;;;5011920;28;20068;-64
2023/10/15 12:24:11;;;;;;;3.10;0.80;;;13.90;99.90;;;;;;5023450;28;20037;-62
2023/10/15 12:26:37;;;;;;;3.28;0.75;;;13.90;99.90;;;;;;5019687;28;20108;-62
2023/10/15 12:29:03;;;;;;;2.33;0.80;;;13.90;99.90;;;;;;5019442;28;20047;-71
2023/10/15 12:31:30;;;;;;;2.15;0.60;;;14.00;99.90;;;;;;5019632;28;20037;-70
2023/10/15 12:33:56;;;;;;;1.38;0.70;;;13.90;99.90;;;;;;5022333;28;20128;-72
2023/10/15 12:36:22;;;;;;;3.60;0.50;;;13.90;99.90;;;;;;5018084;28;21446;-71
2023/10/15 12:38:48;;;;;;;2.58;0.57;;;13.80;99.90;;;;;;5020325;28;20057;-72
2023/10/15 12:41:14;;;;;;;2.10;0.60;;;13.70;99.90;;;;;;5024706;28;20070;-73
2023/10/15 12:43:40;;;;;;;2.67;0.65;;;13.80;99.90;;;;;;5025731;28;20801;-64
2023/10/15 12:46:07;;;;;;;2.30;0.70;;;13.80;99.90;;;;;;5027177;28;20095;-71
2023/10/15 12:48:33;;;;;;;3.17;0.88;;;13.80;99.90;;;;;;5022500;28;20585;-75
2023/10/15 12:50:59;;;;;;;1.42;0.45;;;13.90;99.90;;;;;;5026176;28;20060;-70
2023/10/15 12:53:25;;;;;;;2.45;0.52;;;13.80;99.90;;;;;;5022326;28;20593;-80
2023/10/15 12:55:52;;;;;;;2.95;0.70;;;13.80;99.90;;;;;;5026878;28;21532;-80
2023/10/15 12:58:18;;;;;;;1.92;0.75;;;13.60;99.90;;;;;;5015432;28;20083;-80
2023/10/15 13:00:48;;;;;;;3.58;0.90;;;13.60;99.90;;;;;;5033926;28;20582;-81
2023/10/15 13:03:16;;;;;;;2.63;0.95;;;13.50;99.90;;;;;;5036054;28;20048;-79
2023/10/15 13:05:41;;;;;;;2.55;0.70;;;13.50;99.90;;;;;;5028703;28;20025;-66
2023/10/15 13:08:07;;;;;;;3.28;0.85;;;13.40;99.90;;;;;;5023022;28;20520;-66